Time;durP1;ratioP1;P1;durP2;ratioP2;P2;SDS_P1;SDS_P2;PMS_P1;PMS_P2;Temp;Humidity;BMP_temperature;BMP_pressure;BME280_temperature;BME280_humidity;BME280_pressure;Samples;Min_cycle;Max_cycle;Signal;HPM_P1;HPM_P2
2021/01/13 00:00:19;;;;;;;14.50;2.03;;;3.90;99.90;;;;;;5071001;28;38317;-75
2021/01/13 00:02:45;;;;;;;14.07;1.97;;;3.70;99.90;;;;;;5089059;28;36813;-76
2021/01/13 00:05:15;;;;;;;14.93;2.10;;;3.50;99.90;;;;;;5077103;28;40897;-76
2021/01/13 00:07:42;;;;;;;15.50;3.40;;;3.40;99.90;;;;;;5077281;28;40120;-77
2021/01/13 00:10:09;;;;;;;11.43;2.33;;;3.20;99.90;;;;;;5057457;28;36667;-76
2021/01/13 00:12:37;;;;;;;14.13;2.53;;;3.20;99.90;;;;;;5072017;28;36290;-76
2021/01/13 00:15:05;;;;;;;13.33;2.17;;;3.10;99.90;;;;;;5078974;28;38822;-76
2021/01/13 00:17:31;;;;;;;9.20;1.80;;;2.90;99.90;;;;;;5067869;28;47106;-76
2021/01/13 00:19:57;;;;;;;7.50;1.70;;;2.90;99.90;;;;;;5086824;28;38755;-76
2021/01/13 00:22:24;;;;;;;7.27;1.63;;;2.80;99.90;;;;;;5076943;28;37938;-76
2021/01/13 00:24:52;;;;;;;15.33;2.03;;;2.70;99.90;;;;;;5076596;28;37430;-76
2021/01/13 00:27:21;;;;;;;13.30;1.90;;;2.50;99.90;;;;;;5080844;28;38701;-76
2021/01/13 00:29:49;;;;;;;18.60;3.73;;;2.40;99.90;;;;;;5065598;28;37925;-76
2021/01/13 00:32:15;;;;;;;14.03;2.13;;;2.40;99.90;;;;;;5081680;28;37584;-76
2021/01/13 00:34:41;;;;;;;14.63;2.03;;;2.30;99.90;;;;;;5067542;28;37980;-75
2021/01/13 00:37:08;;;;;;;8.60;1.90;;;2.40;99.90;;;;;;5087074;28;36272;-75
2021/01/13 00:39:35;;;;;;;12.93;2.13;;;2.50;99.90;;;;;;5089950;28;37504;-76
2021/01/13 00:42:02;;;;;;;11.20;1.57;;;2.50;99.90;;;;;;5069345;28;37009;-75
2021/01/13 00:44:28;;;;;;;19.33;2.27;;;2.50;99.90;;;;;;5071528;27;40317;-76
2021/01/13 00:46:54;;;;;;;7.83;1.53;;;2.50;99.90;;;;;;5084858;28;38760;-75
2021/01/13 00:49:20;;;;;;;13.77;1.70;;;2.60;99.90;;;;;;5082059;28;37708;-75
2021/01/13 00:51:46;;;;;;;13.03;1.80;;;2.80;99.90;;;;;;5062179;28;36935;-76
2021/01/13 00:54:13;;;;;;;10.17;1.70;;;3.00;99.90;;;;;;5075455;28;39037;-75
2021/01/13 00:56:45;;;;;;;14.10;2.97;;;3.30;99.90;;;;;;5072477;28;39141;-75
2021/01/13 00:59:11;;;;;;;12.93;1.50;;;3.40;99.90;;;;;;5066798;28;38390;-76
2021/01/13 01:01:39;;;;;;;12.93;1.50;;;3.50;99.90;;;;;;5093150;28;36913;-75
2021/01/13 01:04:06;;;;;;;12.00;1.57;;;3.60;99.90;;;;;;5090236;28;38749;-76
2021/01/13 01:06:32;;;;;;;9.50;1.47;;;3.70;99.90;;;;;;5095774;28;37835;-76
2021/01/13 01:08:59;;;;;;;18.53;1.63;;;3.70;99.90;;;;;;5078725;28;38194;-76
2021/01/13 01:11:29;;;;;;;11.53;1.77;;;3.90;99.90;;;;;;5081053;28;38149;-76
2021/01/13 01:13:55;;;;;;;11.93;2.13;;;4.20;99.90;;;;;;5066378;28;41094;-76
2021/01/13 01:16:27;;;;;;;9.27;1.73;;;4.30;99.90;;;;;;5089377;28;39470;-76
2021/01/13 01:18:53;;;;;;;15.90;1.95;;;4.50;99.90;;;;;;5094529;28;37943;-76
2021/01/13 01:21:19;;;;;;;20.97;2.57;;;4.50;99.90;;;;;;5103573;28;37221;-76
2021/01/13 01:23:45;;;;;;;20.73;2.03;;;4.60;99.90;;;;;;5086785;28;39425;-76
2021/01/13 01:26:11;;;;;;;15.37;2.10;;;4.80;99.90;;;;;;5090378;28;39357;-76
2021/01/13 01:28:37;;;;;;;13.03;2.27;;;4.90;99.90;;;;;;5094579;28;38654;-77
2021/01/13 01:31:03;;;;;;;19.97;3.00;;;5.00;99.90;;;;;;5071349;28;36263;-77
2021/01/13 01:33:30;;;;;;;16.53;2.23;;;5.00;99.90;;;;;;5074172;28;38310;-78
2021/01/13 01:35:56;;;;;;;20.33;3.03;;;5.00;99.90;;;;;;5081195;28;37578;-76
2021/01/13 01:38:22;;;;;;;18.53;2.50;;;5.10;99.90;;;;;;5082403;28;38533;-77
2021/01/13 01:40:48;;;;;;;10.90;2.47;;;5.00;99.90;;;;;;5086409;28;37346;-76
2021/01/13 01:43:14;;;;;;;14.63;2.10;;;5.00;99.90;;;;;;5058268;28;40561;-76
2021/01/13 01:45:40;;;;;;;11.80;2.03;;;4.90;99.90;;;;;;5087396;28;38751;-77
2021/01/13 01:48:23;;;;;;;19.63;2.53;;;5.00;99.90;;;;;;5074731;28;39229;-77
2021/01/13 01:50:50;;;;;;;17.02;2.50;;;5.00;99.90;;;;;;5096037;28;37055;-77
2021/01/13 01:53:26;;;;;;;12.47;1.80;;;5.00;99.90;;;;;;5090944;28;38796;-77
2021/01/13 01:56:13;;;;;;;13.90;2.13;;;5.00;99.90;;;;;;5070253;28;39214;-77
2021/01/13 01:58:47;;;;;;;9.57;1.70;;;5.10;99.90;;;;;;5064491;28;48564;-77
2021/01/13 02:01:32;;;;;;;15.87;2.13;;;5.00;99.90;;;;;;5091516;28;37856;-77
2021/01/13 02:04:29;;;;;;;13.87;1.73;;;5.00;99.90;;;;;;5093791;28;39545;-77
2021/01/13 02:06:58;;;;;;;18.77;1.63;;;4.90;99.90;;;;;;5074406;28;48855;-76
2021/01/13 02:09:25;;;;;;;14.10;1.93;;;4.80;99.90;;;;;;5093004;28;36578;-77
2021/01/13 02:11:53;;;;;;;16.50;1.77;;;4.80;99.90;;;;;;5096601;28;38142;-77
2021/01/13 02:14:20;;;;;;;22.00;2.20;;;4.70;99.90;;;;;;5089251;28;39782;-77
2021/01/13 02:16:52;;;;;;;16.07;2.30;;;4.70;99.90;;;;;;5089594;28;40271;-76
2021/01/13 02:19:57;;;;;;;11.00;1.80;;;4.70;99.90;;;;;;5081648;28;37848;-77
2021/01/13 02:22:26;;;;;;;14.83;1.97;;;4.70;99.90;;;;;;5073135;28;37978;-77
2021/01/13 02:25:43;;;;;;;8.90;1.37;;;4.70;99.90;;;;;;5084061;28;38939;-77
2021/01/13 02:28:17;;;;;;;14.60;2.13;;;4.60;99.90;;;;;;5079910;28;48578;-76
2021/01/13 02:30:57;;;;;;;7.70;1.40;;;4.60;99.90;;;;;;5086518;28;38823;-77
2021/01/13 02:33:39;;;;;;;16.73;1.70;;;4.50;99.90;;;;;;5072667;28;38073;-77
2021/01/13 02:36:33;;;;;;;11.40;2.63;;;4.40;99.90;;;;;;5095479;28;40192;-77
2021/01/13 02:39:01;;;;;;;16.60;1.83;;;4.50;99.90;;;;;;5071721;28;40457;-77
2021/01/13 02:41:35;;;;;;;13.77;2.50;;;4.50;99.90;;;;;;5093032;28;47568;-77
2021/01/13 02:44:06;;;;;;;14.27;2.13;;;4.60;99.90;;;;;;5092263;28;37158;-77
2021/01/13 02:46:50;;;;;;;17.53;2.10;;;4.80;99.90;;;;;;5078470;28;47430;-76
2021/01/13 02:49:23;;;;;;;15.17;2.23;;;4.80;99.90;;;;;;5078278;28;38238;-77
2021/01/13 02:51:55;;;;;;;23.03;3.37;;;4.70;99.90;;;;;;5080839;28;38166;-78
2021/01/13 02:54:42;;;;;;;17.33;3.00;;;4.80;99.90;;;;;;5088776;28;38309;-77
2021/01/13 02:57:27;;;;;;;14.73;2.20;;;5.00;99.90;;;;;;5079750;28;39877;-77
2021/01/13 02:59:58;;;;;;;18.10;2.20;;;5.10;99.90;;;;;;5077204;28;39219;-77
2021/01/13 03:02:38;;;;;;;20.13;2.47;;;5.10;99.90;;;;;;5089667;28;38295;-77
2021/01/13 03:05:05;;;;;;;11.50;1.60;;;5.10;99.90;;;;;;5092422;28;37567;-77
2021/01/13 03:07:36;;;;;;;12.03;1.80;;;5.00;99.90;;;;;;5070567;28;47131;-77
2021/01/13 03:10:10;;;;;;;19.87;2.77;;;5.00;99.90;;;;;;5071652;28;38388;-77
2021/01/13 03:12:40;;;;;;;9.40;1.70;;;5.10;99.90;;;;;;5095554;28;47018;-78
2021/01/13 03:15:07;;;;;;;11.43;2.10;;;5.10;99.90;;;;;;5080990;28;38026;-77
2021/01/13 03:17:33;;;;;;;16.53;2.10;;;5.20;99.90;;;;;;5093711;28;38828;-76
2021/01/13 03:20:26;;;;;;;7.87;2.10;;;5.10;99.90;;;;;;5092174;28;39457;-76
2021/01/13 03:23:21;;;;;;;15.02;1.77;;;5.10;99.90;;;;;;5096032;28;49125;-77
2021/01/13 03:25:57;;;;;;;10.80;2.13;;;5.20;99.90;;;;;;5072187;28;47343;-76
2021/01/13 03:28:30;;;;;;;16.77;2.00;;;5.20;99.90;;;;;;5074691;28;37559;-77
2021/01/13 03:30:58;;;;;;;9.35;1.52;;;5.20;99.90;;;;;;5090745;28;38599;-77
2021/01/13 03:33:25;;;;;;;16.10;2.23;;;5.20;99.90;;;;;;5084846;28;37770;-76
2021/01/13 03:36:34;;;;;;;8.83;1.60;;;5.20;99.90;;;;;;5059995;28;36283;-77
2021/01/13 03:39:08;;;;;;;13.00;1.77;;;5.30;99.90;;;;;;5077993;28;48763;-77
2021/01/13 03:41:52;;;;;;;9.13;1.80;;;5.10;99.90;;;;;;5073307;28;47405;-77
2021/01/13 03:44:29;;;;;;;12.93;2.20;;;5.00;99.90;;;;;;5062539;28;38890;-77
2021/01/13 03:46:57;;;;;;;11.07;2.00;;;5.00;99.90;;;;;;5069557;28;36210;-77
2021/01/13 03:49:28;;;;;;;15.00;1.93;;;5.10;99.90;;;;;;5080028;28;38239;-77
2021/01/13 03:52:04;;;;;;;10.93;1.43;;;5.10;99.90;;;;;;5081394;28;39292;-77
2021/01/13 03:54:35;;;;;;;10.90;1.80;;;5.10;99.90;;;;;;5068107;28;48219;-77
2021/01/13 03:57:07;;;;;;;13.40;2.20;;;5.00;99.90;;;;;;5077173;28;37350;-77
2021/01/13 03:59:42;;;;;;;12.57;1.80;;;5.00;99.90;;;;;;5081455;28;38161;-77
2021/01/13 04:02:09;;;;;;;12.83;2.40;;;5.00;99.90;;;;;;5078578;28;39140;-77
2021/01/13 04:05:17;;;;;;;10.40;1.30;;;5.00;99.90;;;;;;5064822;28;39002;-76
2021/01/13 04:07:50;;;;;;;15.80;1.90;;;5.10;99.90;;;;;;5063626;28;47153;-77
2021/01/13 04:10:17;;;;;;;11.23;1.53;;;5.00;99.90;;;;;;5065239;28;38972;-77
2021/01/13 04:12:57;;;;;;;10.17;1.50;;;5.10;99.90;;;;;;5081398;28;37960;-76
2021/01/13 04:15:39;;;;;;;14.07;1.97;;;5.00;99.90;;;;;;5077311;28;38550;-77
2021/01/13 04:18:07;;;;;;;10.20;1.70;;;5.00;99.90;;;;;;5067214;28;36171;-76
2021/01/13 04:20:35;;;;;;;13.83;1.50;;;5.10;99.90;;;;;;5079300;28;37814;-77
2021/01/13 04:23:04;;;;;;;9.93;1.97;;;5.10;99.90;;;;;;5095249;27;39215;-77
2021/01/13 04:25:31;;;;;;;9.80;1.70;;;5.10;99.90;;;;;;5091714;28;48534;-76
2021/01/13 04:27:58;;;;;;;10.97;1.50;;;5.10;99.90;;;;;;5081385;28;38236;-77
2021/01/13 04:30:26;;;;;;;12.57;2.40;;;5.10;99.90;;;;;;5093034;28;39297;-76
2021/01/13 04:32:56;;;;;;;11.17;1.93;;;5.10;99.90;;;;;;5061024;28;39475;-78
2021/01/13 04:35:24;;;;;;;8.57;1.60;;;5.00;99.90;;;;;;5076123;28;37888;-77
2021/01/13 04:37:56;;;;;;;11.87;1.70;;;5.00;99.90;;;;;;5068769;28;37996;-77
2021/01/13 04:40:39;;;;;;;14.80;2.00;;;5.00;99.90;;;;;;5081151;28;38834;-77
2021/01/13 04:43:11;;;;;;;12.73;1.93;;;4.90;99.90;;;;;;5082019;28;39410;-76
2021/01/13 04:45:44;;;;;;;12.67;1.80;;;5.00;99.90;;;;;;5075931;28;39013;-76
2021/01/13 04:48:12;;;;;;;12.77;1.80;;;5.10;99.90;;;;;;5095657;28;36628;-77
2021/01/13 04:50:45;;;;;;;15.37;2.17;;;5.00;99.90;;;;;;5088566;28;40134;-76
2021/01/13 04:53:14;;;;;;;14.33;2.20;;;4.90;99.90;;;;;;5063739;28;37747;-76
2021/01/13 04:55:45;;;;;;;9.07;2.20;;;4.80;99.90;;;;;;5091317;28;39900;-76
2021/01/13 04:58:20;;;;;;;9.33;1.83;;;4.70;99.90;;;;;;5079929;28;38989;-77
2021/01/13 05:01:11;;;;;;;12.90;1.63;;;4.70;99.90;;;;;;5094699;28;38775;-77
2021/01/13 05:03:59;;;;;;;15.07;1.50;;;4.80;99.90;;;;;;5082748;28;47250;-77
2021/01/13 05:06:45;;;;;;;14.10;1.70;;;4.90;99.90;;;;;;5082589;28;39202;-76
2021/01/13 05:09:11;;;;;;;9.07;1.50;;;4.90;99.90;;;;;;5060361;28;37661;-76
2021/01/13 05:11:43;;;;;;;14.80;1.87;;;4.90;99.90;;;;;;5081772;28;39436;-77
2021/01/13 05:14:11;;;;;;;7.47;1.55;;;5.00;99.90;;;;;;5076027;28;38554;-76
2021/01/13 05:17:02;;;;;;;10.10;1.57;;;5.00;99.90;;;;;;5088506;28;38687;-77
2021/01/13 05:20:16;;;;;;;12.67;1.37;;;5.00;99.90;;;;;;5080181;28;48744;-77
2021/01/13 05:22:43;;;;;;;15.20;1.37;;;5.00;99.90;;;;;;5089473;28;47238;-76
2021/01/13 05:25:10;;;;;;;12.97;1.80;;;4.90;99.90;;;;;;5095839;28;38609;-76
2021/01/13 05:27:41;;;;;;;14.43;1.67;;;4.80;99.90;;;;;;5102270;28;37514;-77
2021/01/13 05:30:10;;;;;;;13.57;1.80;;;4.90;99.90;;;;;;5075690;28;37011;-77
2021/01/13 05:32:40;;;;;;;11.50;1.63;;;4.90;99.90;;;;;;5087993;28;38867;-76
2021/01/13 05:35:07;;;;;;;10.30;1.40;;;4.90;99.90;;;;;;5091420;28;38239;-76
2021/01/13 05:37:53;;;;;;;14.73;1.60;;;4.90;99.90;;;;;;5081124;28;39072;-76
2021/01/13 05:40:20;;;;;;;11.50;1.70;;;5.00;99.90;;;;;;5064017;28;35752;-76
2021/01/13 05:42:46;;;;;;;9.10;1.20;;;5.00;99.90;;;;;;5090481;28;38710;-76
2021/01/13 05:45:14;;;;;;;12.33;1.43;;;5.00;99.90;;;;;;5089337;28;38582;-76
2021/01/13 05:47:54;;;;;;;10.10;1.50;;;5.00;99.90;;;;;;5075233;28;38872;-76
2021/01/13 05:50:23;;;;;;;7.47;2.97;;;4.90;99.90;;;;;;5078896;28;37125;-76
2021/01/13 05:52:54;;;;;;;10.67;1.60;;;4.90;99.90;;;;;;5071844;28;38915;-76
2021/01/13 05:55:21;;;;;;;13.63;1.67;;;4.90;99.90;;;;;;5080810;28;39303;-77
2021/01/13 05:57:54;;;;;;;9.50;1.20;;;4.90;99.90;;;;;;5075407;28;36023;-76
2021/01/13 06:00:25;;;;;;;12.67;1.77;;;5.00;99.90;;;;;;5068343;28;35435;-77
2021/01/13 06:03:00;;;;;;;8.47;1.30;;;5.00;99.90;;;;;;5086292;28;38938;-77
2021/01/13 06:05:28;;;;;;;8.50;1.60;;;5.00;99.90;;;;;;5073753;28;39076;-76
2021/01/13 06:07:59;;;;;;;8.60;1.40;;;5.00;99.90;;;;;;5086508;28;38283;-76
2021/01/13 06:10:30;;;;;;;7.17;1.40;;;5.00;99.90;;;;;;5061801;28;38542;-76
2021/01/13 06:12:59;;;;;;;13.00;1.63;;;5.00;99.90;;;;;;5091267;28;39853;-77
2021/01/13 06:15:26;;;;;;;6.67;1.50;;;5.00;99.90;;;;;;5071132;28;39816;-77
2021/01/13 06:17:54;;;;;;;6.57;1.20;;;5.00;99.90;;;;;;5092651;28;38782;-77
2021/01/13 06:20:25;;;;;;;7.17;1.30;;;5.10;99.90;;;;;;5088047;28;37550;-76
2021/01/13 06:22:52;;;;;;;9.83;1.70;;;5.10;99.90;;;;;;5086317;28;39548;-77
2021/01/13 06:25:23;;;;;;;13.37;1.97;;;5.10;99.90;;;;;;5087009;28;39861;-76
2021/01/13 06:28:05;;;;;;;4.83;1.40;;;5.10;99.90;;;;;;5077704;28;39194;-76
2021/01/13 06:30:42;;;;;;;7.70;1.73;;;5.10;99.90;;;;;;5076067;28;48675;-76
2021/01/13 06:33:22;;;;;;;14.03;3.13;;;5.00;99.90;;;;;;5079219;28;38386;-76
2021/01/13 06:36:18;;;;;;;5.47;1.40;;;5.00;99.90;;;;;;5091630;28;38485;-76
2021/01/13 06:38:56;;;;;;;10.63;1.47;;;4.90;99.90;;;;;;5099265;27;48606;-77
2021/01/13 06:41:23;;;;;;;14.63;1.50;;;5.00;99.90;;;;;;5064666;28;37997;-77
2021/01/13 06:44:04;;;;;;;12.33;1.30;;;5.00;99.90;;;;;;5075665;27;38956;-77
2021/01/13 06:46:30;;;;;;;5.27;1.30;;;5.00;99.90;;;;;;5079813;28;47317;-76
2021/01/13 06:49:11;;;;;;;16.37;1.97;;;5.10;99.90;;;;;;5090428;28;38919;-77
2021/01/13 06:51:42;;;;;;;17.50;2.33;;;5.10;99.90;;;;;;5074494;28;47456;-77
2021/01/13 06:54:12;;;;;;;9.23;1.60;;;5.10;99.90;;;;;;5078346;28;38224;-76
2021/01/13 06:56:47;;;;;;;9.07;1.50;;;5.10;99.90;;;;;;5080126;28;38764;-76
2021/01/13 06:59:14;;;;;;;12.53;1.53;;;5.10;99.90;;;;;;5089541;28;37782;-76
2021/01/13 07:01:57;;;;;;;10.30;1.70;;;5.10;99.90;;;;;;5079549;28;38588;-76
2021/01/13 07:04:24;;;;;;;9.10;1.13;;;5.10;99.90;;;;;;5062878;28;39698;-77
2021/01/13 07:07:07;;;;;;;13.17;1.70;;;5.20;99.90;;;;;;5083473;28;39683;-76
2021/01/13 07:09:38;;;;;;;17.13;1.53;;;5.20;99.90;;;;;;5091010;28;47419;-76
2021/01/13 07:12:28;;;;;;;10.50;1.73;;;5.20;99.90;;;;;;5067668;28;37902;-76
2021/01/13 07:14:56;;;;;;;11.27;1.43;;;5.10;99.90;;;;;;5050423;28;37421;-76
2021/01/13 07:17:24;;;;;;;7.97;1.20;;;5.20;99.90;;;;;;5071487;28;39664;-76
2021/01/13 07:19:52;;;;;;;7.43;1.80;;;5.20;99.90;;;;;;5080891;28;38173;-76
2021/01/13 07:22:19;;;;;;;10.53;1.57;;;5.20;99.90;;;;;;5068804;28;37664;-77
2021/01/13 07:24:46;;;;;;;16.67;2.40;;;5.20;99.90;;;;;;5052968;28;39612;-76
2021/01/13 07:27:14;;;;;;;15.07;1.33;;;5.20;99.90;;;;;;5076083;28;38041;-76
2021/01/13 07:29:41;;;;;;;12.87;1.30;;;5.20;99.90;;;;;;5078610;28;38036;-76
2021/01/13 07:32:09;;;;;;;10.10;1.57;;;5.10;99.90;;;;;;5089376;28;37171;-76
2021/01/13 07:34:43;;;;;;;12.80;1.50;;;5.00;99.90;;;;;;5064291;28;37842;-76
2021/01/13 07:37:20;;;;;;;6.40;1.20;;;4.90;99.90;;;;;;5083377;28;38612;-76
2021/01/13 07:39:58;;;;;;;14.10;2.03;;;4.90;99.90;;;;;;5070580;28;38078;-76
2021/01/13 07:42:33;;;;;;;13.27;1.43;;;4.80;99.90;;;;;;5067939;28;38543;-76
2021/01/13 07:45:20;;;;;;;10.53;1.20;;;4.70;99.90;;;;;;5082681;28;38091;-76
2021/01/13 07:47:49;;;;;;;8.60;1.50;;;4.80;99.90;;;;;;5085213;28;49362;-76
2021/01/13 07:50:17;;;;;;;14.20;1.90;;;4.80;99.90;;;;;;5061634;28;36963;-76
2021/01/13 07:52:48;;;;;;;11.50;3.03;;;4.80;99.90;;;;;;5072355;28;38426;-76
2021/01/13 07:55:23;;;;;;;12.30;1.98;;;4.70;99.90;;;;;;5092632;28;39574;-76
2021/01/13 07:57:52;;;;;;;12.80;1.37;;;4.80;99.90;;;;;;5081570;28;38651;-76
2021/01/13 08:00:27;;;;;;;12.43;1.70;;;4.80;99.90;;;;;;5079257;28;39030;-77
2021/01/13 08:03:17;;;;;;;8.20;1.90;;;4.70;99.90;;;;;;5079371;28;37556;-76
2021/01/13 08:06:21;;;;;;;9.73;1.37;;;4.70;99.90;;;;;;5091389;27;47485;-76
2021/01/13 08:09:05;;;;;;;9.90;1.70;;;4.70;99.90;;;;;;5072833;28;47085;-75
2021/01/13 08:12:05;;;;;;;6.60;1.50;;;4.70;99.90;;;;;;5098098;28;48383;-76
2021/01/13 08:15:02;;;;;;;11.60;1.63;;;4.70;99.90;;;;;;5090509;28;47152;-76
2021/01/13 08:17:40;;;;;;;8.50;1.50;;;4.70;99.90;;;;;;5087076;28;37639;-76
2021/01/13 08:20:29;;;;;;;10.13;1.20;;;4.70;99.90;;;;;;5076097;28;40067;-76
2021/01/13 08:23:12;;;;;;;5.60;1.37;;;4.70;99.90;;;;;;5074975;28;39400;-77
2021/01/13 08:25:43;;;;;;;7.10;1.33;;;4.80;99.90;;;;;;5088276;27;49851;-76
2021/01/13 08:28:12;;;;;;;8.70;1.97;;;4.90;99.90;;;;;;5071814;28;39626;-76
2021/01/13 08:30:44;;;;;;;9.63;1.60;;;4.90;99.90;;;;;;5096194;28;38428;-76
2021/01/13 08:33:25;;;;;;;5.55;1.17;;;4.90;99.90;;;;;;5091699;28;38094;-76
2021/01/13 08:35:59;;;;;;;5.83;1.43;;;4.90;99.90;;;;;;5089196;28;37633;-76
2021/01/13 08:38:26;;;;;;;7.90;1.53;;;4.90;99.90;;;;;;5081176;28;37701;-77
2021/01/13 08:40:54;;;;;;;11.83;1.47;;;4.90;99.90;;;;;;5094940;28;37848;-76
2021/01/13 08:43:22;;;;;;;8.73;1.40;;;4.90;99.90;;;;;;5096694;28;38227;-75
2021/01/13 08:45:50;;;;;;;13.87;1.83;;;5.00;99.90;;;;;;5075782;28;36154;-76
2021/01/13 08:48:21;;;;;;;12.97;2.10;;;5.00;99.90;;;;;;5079565;28;38643;-76
2021/01/13 08:51:03;;;;;;;12.47;2.10;;;5.10;99.90;;;;;;5088727;27;38351;-76
2021/01/13 08:53:29;;;;;;;10.73;1.83;;;5.10;99.90;;;;;;5091921;28;47224;-75
2021/01/13 08:55:56;;;;;;;9.00;1.53;;;5.10;99.90;;;;;;5092404;28;37280;-75
2021/01/13 08:58:33;;;;;;;9.57;1.40;;;5.10;99.90;;;;;;5087690;28;39434;-77
2021/01/13 09:01:05;;;;;;;15.57;2.07;;;5.10;99.90;;;;;;5096187;28;38547;-76
2021/01/13 09:03:35;;;;;;;8.55;1.40;;;5.10;99.90;;;;;;5067331;28;46910;-77
2021/01/13 09:06:21;;;;;;;6.40;1.37;;;5.10;99.90;;;;;;5078689;27;37945;-76
2021/01/13 09:08:49;;;;;;;5.97;1.40;;;5.20;99.90;;;;;;5081004;28;39448;-76
2021/01/13 09:11:35;;;;;;;9.50;1.90;;;5.20;99.90;;;;;;5071279;28;40232;-76
2021/01/13 09:14:24;;;;;;;7.57;1.70;;;5.20;99.90;;;;;;5087482;27;38648;-76
2021/01/13 09:16:54;;;;;;;12.43;2.23;;;5.20;99.90;;;;;;5092511;28;48096;-76
2021/01/13 09:19:37;;;;;;;11.20;2.17;;;5.20;99.90;;;;;;5081060;28;39793;-77
2021/01/13 09:22:09;;;;;;;6.10;1.60;;;5.20;99.90;;;;;;5091527;28;38894;-76
2021/01/13 09:24:38;;;;;;;11.20;2.20;;;5.30;99.90;;;;;;5081662;28;37109;-76
2021/01/13 09:27:06;;;;;;;12.63;2.03;;;5.30;99.90;;;;;;5092125;28;37875;-76
2021/01/13 09:29:54;;;;;;;10.63;1.67;;;5.30;99.90;;;;;;5095550;28;39446;-76
2021/01/13 09:32:23;;;;;;;15.30;2.33;;;5.30;99.90;;;;;;5072982;28;38321;-77
2021/01/13 09:34:53;;;;;;;8.43;1.83;;;5.30;99.90;;;;;;5080197;28;38575;-76
2021/01/13 09:37:21;;;;;;;10.43;2.60;;;5.30;99.90;;;;;;5091552;28;38384;-77
2021/01/13 09:40:01;;;;;;;13.13;2.30;;;5.30;99.90;;;;;;5080715;28;38544;-77
2021/01/13 09:42:39;;;;;;;12.80;2.17;;;5.30;99.90;;;;;;5093302;28;38766;-76
2021/01/13 09:45:06;;;;;;;7.00;1.70;;;5.40;99.90;;;;;;5088119;28;38589;-76
2021/01/13 09:47:33;;;;;;;9.47;1.83;;;5.50;99.90;;;;;;5097327;28;36883;-76
2021/01/13 09:49:59;;;;;;;11.23;2.17;;;5.60;99.90;;;;;;5084351;28;39797;-76
2021/01/13 09:52:36;;;;;;;15.00;2.80;;;5.60;99.90;;;;;;5077570;28;39218;-76
2021/01/13 09:55:04;;;;;;;10.00;2.10;;;5.60;99.90;;;;;;5086142;28;38048;-77
2021/01/13 09:57:33;;;;;;;10.70;1.83;;;5.60;99.90;;;;;;5094333;28;48542;-76
2021/01/13 10:00:12;;;;;;;10.03;2.13;;;5.60;99.90;;;;;;5072952;28;39764;-77
2021/01/13 10:02:40;;;;;;;16.13;2.80;;;5.70;99.90;;;;;;5053836;28;46097;-76
2021/01/13 10:05:08;;;;;;;10.97;2.03;;;5.70;99.90;;;;;;5077294;28;38079;-76
2021/01/13 10:07:35;;;;;;;13.80;3.17;;;5.70;99.90;;;;;;5084663;28;38158;-76
2021/01/13 10:10:05;;;;;;;16.07;4.23;;;5.70;99.90;;;;;;5083481;28;40350;-76
2021/01/13 10:12:40;;;;;;;14.63;2.67;;;5.80;99.90;;;;;;5074085;28;47444;-76
2021/01/13 10:15:12;;;;;;;11.00;2.23;;;5.90;99.90;;;;;;5086979;27;38514;-76
2021/01/13 10:17:39;;;;;;;12.10;2.47;;;5.90;99.90;;;;;;5089744;28;37245;-76
2021/01/13 10:20:16;;;;;;;13.20;3.17;;;5.90;99.90;;;;;;5077137;28;38711;-76
2021/01/13 10:22:44;;;;;;;9.57;2.30;;;5.90;99.90;;;;;;5057947;28;38922;-76
2021/01/13 10:25:11;;;;;;;11.30;2.10;;;5.90;99.90;;;;;;5086828;28;38310;-76
2021/01/13 10:27:42;;;;;;;17.33;2.97;;;5.90;99.90;;;;;;5079678;28;38113;-75
2021/01/13 10:30:12;;;;;;;12.37;2.60;;;5.90;99.90;;;;;;5065806;28;39503;-76
2021/01/13 10:32:55;;;;;;;12.10;2.10;;;5.90;99.90;;;;;;5083937;28;38181;-76
2021/01/13 10:35:23;;;;;;;11.97;2.40;;;5.90;99.90;;;;;;5076322;28;38087;-77
2021/01/13 10:37:55;;;;;;;11.40;2.73;;;5.90;99.90;;;;;;5081317;28;36028;-76
2021/01/13 10:40:23;;;;;;;9.17;1.97;;;6.00;99.90;;;;;;5068755;27;37909;-75
2021/01/13 10:42:53;;;;;;;10.40;2.10;;;6.00;99.90;;;;;;5072457;28;38897;-76
2021/01/13 10:45:21;;;;;;;9.17;2.33;;;6.10;99.90;;;;;;5085158;28;37587;-77
2021/01/13 10:48:18;;;;;;;20.90;2.50;;;6.10;99.90;;;;;;5082752;28;37340;-76
2021/01/13 10:50:45;;;;;;;12.27;2.10;;;6.10;99.90;;;;;;5084975;28;47858;-76
2021/01/13 10:53:11;;;;;;;12.00;2.00;;;6.20;99.90;;;;;;5063524;28;38414;-77
2021/01/13 10:55:44;;;;;;;10.87;2.87;;;6.20;99.90;;;;;;5079333;28;37040;-76
2021/01/13 10:58:10;;;;;;;;;;;6.20;99.90;;;;;;5080045;28;36315;-76
2021/01/13 11:00:37;;;;;;;13.03;1.83;;;6.30;99.90;;;;;;5084210;27;38338;-75
2021/01/13 11:03:03;;;;;;;8.23;2.00;;;6.30;99.90;;;;;;5067329;27;38019;-76
2021/01/13 11:05:36;;;;;;;8.00;1.93;;;6.40;99.90;;;;;;5072493;28;38736;-76
2021/01/13 11:08:03;;;;;;;9.57;2.50;;;6.40;99.90;;;;;;5080483;28;37438;-76
2021/01/13 11:10:32;;;;;;;12.20;2.27;;;6.40;99.90;;;;;;5074322;28;37939;-76
2021/01/13 11:13:04;;;;;;;16.57;2.07;;;6.50;99.90;;;;;;5072723;28;38524;-75
2021/01/13 11:15:32;;;;;;;13.07;2.57;;;6.50;99.90;;;;;;5077080;28;20041;-76
2021/01/13 11:17:58;;;;;;;14.90;1.93;;;6.60;99.90;;;;;;5082382;28;37318;-77
2021/01/13 11:20:30;;;;;;;14.33;2.27;;;6.60;99.90;;;;;;5081047;28;37400;-76
2021/01/13 11:22:58;;;;;;;16.53;2.47;;;6.70;99.90;;;;;;5078137;28;38914;-77
2021/01/13 11:25:39;;;;;;;11.33;2.00;;;6.70;99.90;;;;;;5074332;28;36849;-76
2021/01/13 11:28:07;;;;;;;18.13;2.43;;;6.80;99.90;;;;;;5077436;28;37426;-76
2021/01/13 11:30:37;;;;;;;10.90;1.70;;;6.80;99.90;;;;;;5079950;28;39437;-77
2021/01/13 11:33:05;;;;;;;9.13;1.70;;;6.80;99.90;;;;;;5064277;28;39015;-76
2021/01/13 11:35:42;;;;;;;8.30;1.70;;;6.80;99.90;;;;;;5058818;28;38562;-77
2021/01/13 11:38:27;;;;;;;12.07;2.37;;;6.80;99.90;;;;;;5079013;28;39074;-76
2021/01/13 11:41:12;;;;;;;14.07;2.30;;;6.80;99.90;;;;;;5091185;28;40473;-77
2021/01/13 11:43:47;;;;;;;12.90;2.00;;;6.90;99.90;;;;;;5079225;28;49364;-76
2021/01/13 11:46:14;;;;;;;11.17;1.90;;;6.90;99.90;;;;;;5072721;28;37156;-76
2021/01/13 11:48:53;;;;;;;13.83;1.90;;;6.90;99.90;;;;;;5082184;28;37368;-77
2021/01/13 11:51:23;;;;;;;12.27;2.20;;;7.00;99.90;;;;;;5094504;28;38659;-77
2021/01/13 11:53:50;;;;;;;14.13;2.03;;;7.00;99.90;;;;;;5084138;28;38898;-77
2021/01/13 11:56:29;;;;;;;12.40;2.40;;;6.90;99.90;;;;;;5076838;28;38556;-77
2021/01/13 11:58:56;;;;;;;12.37;1.90;;;6.90;99.90;;;;;;5098285;28;37125;-77
2021/01/13 12:01:27;;;;;;;9.17;1.77;;;6.90;99.90;;;;;;5092767;28;38766;-77
2021/01/13 12:03:58;;;;;;;5.83;1.80;;;7.00;99.90;;;;;;5088101;28;40618;-77
2021/01/13 12:06:24;;;;;;;17.10;3.20;;;7.00;99.90;;;;;;5083239;28;38122;-77
2021/01/13 12:08:50;;;;;;;9.10;2.23;;;7.10;99.90;;;;;;5070526;28;36361;-78
2021/01/13 12:11:16;;;;;;;9.87;2.03;;;7.20;99.90;;;;;;5081807;28;37304;-78
2021/01/13 12:13:45;;;;;;;10.70;1.70;;;7.30;99.90;;;;;;5093878;28;37492;-78
2021/01/13 12:16:16;;;;;;;8.57;1.63;;;7.30;99.90;;;;;;5094646;27;37929;-77
2021/01/13 12:18:46;;;;;;;9.07;1.70;;;7.30;99.90;;;;;;5093071;28;36071;-76
2021/01/13 12:21:12;;;;;;;11.03;2.17;;;7.30;99.90;;;;;;5080575;28;39743;-77
2021/01/13 12:23:40;;;;;;;9.23;1.70;;;7.10;99.90;;;;;;5076546;28;37590;-77
2021/01/13 12:26:28;;;;;;;11.20;2.07;;;7.10;99.90;;;;;;5086994;28;38786;-77
2021/01/13 12:28:56;;;;;;;15.93;2.73;;;7.00;99.90;;;;;;5079642;28;39229;-77
2021/01/13 12:31:26;;;;;;;9.13;1.70;;;7.00;99.90;;;;;;5058251;28;39707;-77
2021/01/13 12:33:57;;;;;;;10.03;1.83;;;7.10;99.90;;;;;;5062983;28;37648;-77
2021/01/13 12:36:26;;;;;;;10.23;1.70;;;7.20;99.90;;;;;;5089036;28;35944;-77
2021/01/13 12:38:58;;;;;;;12.87;1.83;;;7.30;99.90;;;;;;5090788;28;38215;-78
2021/01/13 12:41:29;;;;;;;9.80;1.90;;;7.50;99.90;;;;;;5073094;27;39710;-77
2021/01/13 12:44:01;;;;;;;8.67;2.07;;;7.50;99.90;;;;;;5085305;28;36828;-78
2021/01/13 12:46:32;;;;;;;10.40;1.90;;;7.60;99.90;;;;;;5098346;28;48418;-77
2021/01/13 12:48:59;;;;;;;7.43;1.20;;;7.60;99.90;;;;;;5074164;28;36346;-78
2021/01/13 12:51:26;;;;;;;8.70;2.30;;;7.60;99.90;;;;;;5083818;28;38375;-76
2021/01/13 12:53:56;;;;;;;10.27;1.90;;;7.60;99.90;;;;;;5078577;28;37564;-77
2021/01/13 12:56:23;;;;;;;8.27;2.17;;;7.50;99.90;;;;;;5073477;28;37075;-77
2021/01/13 12:58:49;;;;;;;10.20;2.20;;;7.50;99.90;;;;;;5080394;28;37000;-77
2021/01/13 13:01:17;;;;;;;10.37;2.17;;;7.40;99.90;;;;;;5099885;28;39144;-77
2021/01/13 13:03:44;;;;;;;8.37;2.00;;;7.30;99.90;;;;;;5091918;28;38277;-78
2021/01/13 13:06:12;;;;;;;8.97;2.17;;;7.30;99.90;;;;;;5075427;28;36821;-78
2021/01/13 13:08:38;;;;;;;10.57;1.90;;;7.30;99.90;;;;;;5075561;28;38648;-77
2021/01/13 13:11:09;;;;;;;9.47;1.80;;;7.30;99.90;;;;;;5068152;28;37797;-77
2021/01/13 13:13:35;;;;;;;7.37;1.80;;;7.20;99.90;;;;;;5079791;28;39955;-78
2021/01/13 13:16:02;;;;;;;13.13;2.60;;;7.20;99.90;;;;;;5092238;28;39580;-77
2021/01/13 13:18:28;;;;;;;13.17;1.97;;;7.10;99.90;;;;;;5075551;28;36968;-79